Tecolote Canyon (492, 23013) Station Data

Red Flag Warning: No
Fire Weather Zone: 243
SDGE Region: Beach Cities
Lat/Lon: 32.791/-117.184

Observations

Time Wind Speed/Gust Temp(F) RH Fuel Moist Fuel Temp(F) Dewpt(F) Tmax(F) Tmin(F) Accum Precip 10-min Precip SL Press(mb)
5/24 8:20am 256 3 G 6 61° 82% - - 55° 61.5° 58.2° - - -
5/24 8:10am 337 2 G 5 60° 82% - - 55° 61.2° 58.2° - - -
5/24 8:00am 319 3 G 6 60° 82% - - 55° 61.2° 58.2° - - -
5/24 7:50am 187 2 G 4 60° 83% - - 55° 61.2° 58.2° - - -
5/24 7:40am 1 1 G 2 60° 85% - - 55° 60.7° 58.2° - - -
5/24 7:30am 306 3 G 6 60° 86% - - 55° 60.3° 58.2° - - -
5/24 7:20am 301 3 G 6 59° 88% - - 56° 60.3° 58.2° - - -
5/24 7:10am 348 5 G 7 59° 88% - - 55° 60.3° 58.2° - - -
5/24 7:00am 359 4 G 7 59° 89% - - 55° 60.3° 58.2° - - -
5/24 6:50am 331 3 G 6 59° 89% - - 56° 60.3° 58.2° - - -
5/24 6:40am 285 2 G 6 59° 90% - - 56° 60.3° 58.3° - - -
5/24 6:30am 275 3 G 5 59° 90% - - 56° 60.3° 58.3° - - -
5/24 6:20am 311 2 G 4 59° 90% - - 56° 60.3° 58.3° - - -
5/24 6:10am 322 1 G 3 59° 90% - - 56° 60.3° 58.3° - - -
5/24 6:00am 273 2 G 8 59° 90% - - 56° 60.3° 58.3° - - -
5/24 5:50am 265 3 G 5 59° 90% - - 56° 60.3° 58.3° - - -
5/24 5:40am 320 3 G 5 59° 90% - - 56° 60.3° 58.3° - - -
5/24 5:30am 316 2 G 4 59° 91% - - 57° 60.3° 58.3° - - -
5/24 5:20am 276 3 G 6 60° 91% - - 57° 60.3° 58.3° - - -
5/24 5:10am 251 3 G 8 60° 91% - - 57° 60.3° 58.3° - - -
5/24 5:00am 245 2 G 4 60° 91% - - 57° 60.2° 58.3° - - -
5/24 4:50am 249 1 G 4 60° 91% - - 57° 60.2° 58.3° - - -
5/24 4:40am 25 0 G 1 59° 92% - - 57° 60.2° 58.3° - - -
5/24 4:30am 17 2 G 4 59° 92% - - 57° 60.2° 58.3° - - -
5/24 4:20am 46 3 G 5 59° 92% - - 57° 60.2° 58.3° - - -
5/24 4:10am 2 2 G 5 59° 92% - - 57° 60.2° 58.3° - - -
5/24 4:00am 26 4 G 7 59° 92% - - 57° 60.2° 58.3° - - -
5/24 3:50am 78 0 G 2 59° 92% - - 56° 60.2° 58.3° - - -
5/24 3:40am 271 1 G 4 59° 92% - - 56° 60.2° 58.4° - - -
5/24 3:30am 295 2 G 4 59° 92% - - 57° 60.2° 58.5° - - -
5/24 3:20am 293 3 G 5 59° 92% - - 57° 60.2° 58.5° - - -
5/24 3:10am 262 2 G 5 59° 92% - - 57° 60.2° 58.5° - - -
5/24 3:00am 232 3 G 4 59° 92% - - 57° 60.2° 58.5° - - -
5/24 2:50am 237 2 G 5 59° 92% - - 57° 60.2° 58.5° - - -
5/24 2:40am 220 3 G 5 59° 92% - - 57° 60.2° 58.5° - - -
5/24 2:30am 339 2 G 4 59° 92% - - 57° 60.2° 58.5° - - -
5/24 2:20am 358 3 G 5 59° 92% - - 57° 60.2° 58.5° - - -
5/24 2:10am 13 3 G 4 59° 93% - - 57° 60.2° 58.5° - - -
5/24 2:00am 13 2 G 4 59° 93% - - 57° 60.2° 58.5° - - -
5/24 1:50am 267 1 G 3 59° 93% - - 57° 60.2° 58.5° - - -
5/24 1:40am 245 1 G 3 59° 93% - - 57° 60.2° 58.5° - - -
5/24 1:30am 277 2 G 4 59° 93% - - 57° 60.2° 58.5° - - -
5/24 1:20am 331 4 G 6 59° 92% - - 57° 60.2° 58.6° - - -
5/24 1:10am 324 1 G 5 59° 92% - - 57° 60.2° 58.7° - - -
5/24 1:00am 307 2 G 3 59° 92% - - 57° 60.2° 58.7° - - -
5/24 12:50am 346 1 G 3 59° 92% - - 57° 60.2° 58.7° - - -
5/24 12:40am 343 3 G 5 59° 92% - - 57° 60.2° 58.8° - - -
5/24 12:30am 34 2 G 4 60° 92% - - 57° 60.2° 59° - - -
5/24 12:20am 325 3 G 5 60° 92% - - 57° 60.1° 59.1° - - -
5/24 12:10am 332 3 G 5 60° 92% - - 57° 60.1° 59.1° - - -
5/24 12:00am 327 2 G 5 60° 92% - - 57° 73.5° 57.8° - - -
5/23 11:50pm 325 1 G 2 60° 92% - - 57° 73.5° 57.8° - - -
5/23 11:40pm 310 2 G 4 60° 92% - - 57° 73.5° 57.8° - - -
5/23 11:30pm 350 1 G 3 59° 92% - - 57° 73.5° 57.8° - - -
5/23 11:20pm 3 1 G 3 59° 92% - - 57° 73.5° 57.8° - - -
5/23 11:10pm 342 2 G 4 59° 91% - - 57° 73.5° 57.8° - - -
5/23 11:00pm 313 3 G 4 60° 91% - - 57° 73.5° 57.8° - - -
5/23 10:50pm 346 3 G 4 60° 91% - - 57° 73.5° 57.8° - - -
5/23 10:40pm 345 2 G 2 60° 91% - - 57° 73.5° 57.8° - - -
5/23 10:30pm 350 1 G 2 60° 91% - - 57° 73.5° 57.8° - - -
5/23 10:20pm 6 1 G 2 60° 91% - - 57° 73.5° 57.8° - - -
5/23 10:10pm 339 1 G 2 60° 90% - - 57° 73.5° 57.8° - - -
5/23 10:00pm 300 2 G 4 60° 91% - - 57° 73.5° 57.8° - - -
5/23 9:50pm 332 2 G 3 60° 90% - - 57° 73.5° 57.8° - - -
5/23 9:40pm 354 2 G 4 60° 90% - - 57° 73.5° 57.8° - - -
5/23 9:30pm 334 3 G 5 60° 90% - - 57° 73.5° 57.8° - - -
5/23 9:20pm 330 5 G 7 61° 90% - - 58° 73.5° 57.8° - - -
5/23 9:10pm 333 4 G 6 61° 89% - - 58° 73.5° 57.8° - - -
5/23 9:00pm 330 4 G 7 61° 89% - - 58° 73.5° 57.8° - - -
5/23 8:50pm 337 4 G 6 61° 88% - - 58° 73.5° 57.8° - - -
5/23 8:40pm 342 4 G 7 62° 87% - - 58° 73.5° 57.8° - - -
5/23 8:30pm 342 5 G 6 62° 84% - - 58° 73.5° 57.8° - - -
5/23 8:20pm 343 4 G 7 63° 82% - - 57° 73.5° 57.8° - - -
5/23 8:10pm 343 3 G 5 63° 80% - - 57° 73.5° 57.8° - - -
5/23 8:00pm 337 3 G 5 64° 78% - - 57° 73.5° 57.8° - - -
5/23 7:50pm 331 5 G 7 64° 77% - - 57° 73.5° 57.8° - - -
5/23 7:40pm 333 6 G 8 65° 76% - - 57° 73.5° 57.8° - - -
5/23 7:30pm 329 5 G 7 65° 74% - - 57° 73.5° 57.8° - - -
5/23 7:20pm 323 5 G 7 66° 72% - - 57° 73.5° 57.8° - - -
5/23 7:10pm 327 5 G 8 67° 70% - - 57° 73.5° 57.8° - - -
5/23 7:00pm 343 5 G 7 67° 69% - - 57° 73.5° 57.8° - - -
5/23 6:50pm 338 5 G 8 67° 69% - - 57° 73.5° 57.8° - - -
5/23 6:40pm 327 5 G 9 68° 69% - - 57° 73.5° 57.8° - - -
5/23 6:30pm 234 3 G 6 67° 72% - - 58° 73.5° 57.8° - - -
5/23 6:20pm 232 3 G 9 67° 73% - - 58° 73.5° 57.8° - - -
5/23 6:10pm 238 4 G 9 66° 75% - - 58° 73.5° 57.8° - - -
5/23 6:00pm 238 5 G 8 66° 74% - - 58° 73.5° 57.8° - - -
5/23 5:50pm 237 4 G 8 67° 72% - - 58° 73.5° 57.8° - - -
5/23 5:40pm 250 3 G 6 67° 72% - - 58° 73.5° 57.8° - - -
5/23 5:30pm 264 4 G 9 66° 73% - - 58° 73.5° 57.8° - - -
5/23 5:20pm 254 4 G 8 67° 72% - - 58° 73.5° 57.8° - - -
5/23 5:10pm 259 4 G 10 67° 72% - - 57° 73.5° 57.8° - - -
5/23 5:00pm 283 4 G 9 67° 72% - - 57° 73.5° 57.8° - - -
5/23 4:50pm 268 5 G 10 67° 70% - - 57° 73.5° 57.8° - - -
5/23 4:40pm 250 5 G 10 66° 72% - - 57° 73.5° 57.8° - - -
5/23 4:30pm 241 6 G 12 66° 70% - - 56° 73.5° 57.8° - - -
5/23 4:20pm 244 5 G 12 67° 69% - - 56° 73.5° 57.8° - - -
5/23 4:10pm 249 5 G 10 68° 67% - - 57° 73.5° 57.8° - - -
5/23 4:00pm 252 5 G 11 67° 69% - - 57° 73.5° 57.8° - - -
5/23 3:50pm 255 5 G 9 68° 68% - - 57° 73.5° 57.8° - - -
5/23 3:40pm 249 6 G 13 69° 65% - - 57° 73.5° 57.8° - - -
5/23 3:30pm 238 7 G 12 70° 63% - - 57° 73.5° 57.8° - - -
5/23 3:20pm 262 4 G 10 72° 60% - - 57° 73.5° 57.8° - - -
5/23 3:10pm 303 3 G 7 71° 61% - - 57° 72.3° 57.8° - - -
5/23 3:00pm 334 3 G 7 70° 63% - - 57° 72.3° 57.8° - - -
5/23 2:50pm 334 5 G 12 69° 65% - - 57° 72.3° 57.8° - - -
5/23 2:40pm 349 3 G 8 68° 69% - - 57° 72.3° 57.8° - - -
5/23 2:30pm 322 7 G 12 67° 70% - - 57° 72.3° 57.8° - - -
5/23 2:20pm 343 8 G 13 66° 73% - - 57° 72.3° 57.8° - - -
5/23 2:10pm 345 9 G 14 65° 75% - - 57° 72.3° 57.8° - - -
5/23 2:00pm 345 10 G 16 65° 75% - - 57° 72.3° 57.8° - - -
5/23 1:50pm 337 7 G 11 65° 76% - - 57° 72.3° 57.8° - - -
5/23 1:40pm 336 9 G 15 65° 77% - - 57° 72.3° 57.8° - - -
5/23 1:30pm 341 10 G 15 64° 77% - - 57° 72.3° 57.8° - - -
5/23 1:20pm 341 10 G 16 65° 77% - - 58° 72.3° 57.8° - - -
5/23 1:10pm 340 11 G 16 65° 77% - - 58° 72.3° 57.8° - - -
5/23 1:00pm 322 10 G 18 66° 75% - - 58° 72.3° 57.8° - - -
5/23 12:50pm 329 8 G 14 67° 72% - - 58° 72.3° 57.8° - - -
5/23 12:40pm 321 7 G 13 67° 72% - - 58° 72.3° 57.8° - - -
5/23 12:30pm 269 6 G 14 67° 73% - - 58° 72.3° 57.8° - - -
5/23 12:20pm 272 7 G 18 66° 75% - - 58° 72.3° 57.8° - - -
5/23 12:10pm 262 7 G 13 66° 77% - - 58° 72.3° 57.8° - - -
5/23 12:00pm 265 8 G 17 65° 78% - - 58° 72.3° 57.8° - - -
5/23 11:50am 264 7 G 13 66° 77% - - 58° 72.3° 57.8° - - -
5/23 11:40am 254 7 G 13 66° 77% - - 58° 72.3° 57.8° - - -
5/23 11:30am 267 6 G 15 66° 77% - - 58° 72.3° 57.8° - - -
5/23 11:20am 260 6 G 13 66° 78% - - 58° 72.3° 57.8° - - -
5/23 11:10am 273 7 G 15 65° 79% - - 58° 72.3° 57.8° - - -
5/23 11:00am 267 7 G 16 64° 81% - - 58° 72.3° 57.8° - - -
5/23 10:50am 263 8 G 16 65° 78% - - 59° 72.3° 57.8° - - -
5/23 10:40am 257 6 G 12 66° 78% - - 59° 72.3° 57.8° - - -
5/23 10:30am 238 7 G 14 66° 77% - - 59° 72.3° 57.8° - - -
5/23 10:20am 256 5 G 13 67° 75% - - 59° 72.3° 57.8° - - -
5/23 10:10am 251 5 G 10 67° 76% - - 59° 72.3° 57.8° - - -
5/23 10:00am 242 6 G 11 67° 75% - - 59° 72.3° 57.8° - - -
5/23 9:50am 250 5 G 11 69° 70% - - 59° 72.3° 57.8° - - -
5/23 9:40am 251 3 G 7 71° 66% - - 59° 72.3° 57.8° - - -
5/23 9:30am 289 2 G 4 71° 63% - - 58° 72.1° 57.8° - - -
5/23 9:20am 345 1 G 4 69° 67% - - 58° 70.6° 57.8° - - -
5/23 9:10am 14 3 G 6 67° 71% - - 58° 68.8° 57.8° - - -
5/23 9:00am 40 3 G 7 66° 74% - - 58° 67.1° 57.8° - - -
5/23 8:50am 33 2 G 5 65° 77% - - 58° 66.3° 57.8° - - -
5/23 8:40am 35 2 G 5 64° 80% - - 58° 65.1° 57.8° - - -
5/23 8:30am 35 3 G 5 62° 85% - - 58° 63.8° 57.8° - - -
5/23 8:20am 34 4 G 6 61° 89% - - 58° 62.1° 57.8° - - -
5/23 8:10am 19 3 G 6 61° 91% - - 58° 61.5° 57.8° - - -
5/23 8:00am 358 3 G 7 60° 92% - - 57° 60.9° 57.8° - - -
5/23 7:50am 23 5 G 9 60° 92% - - 57° 60.9° 57.8° - - -
5/23 7:40am 23 5 G 7 60° 92% - - 57° 60.9° 57.8° - - -
5/23 7:30am 22 5 G 8 60° 92% - - 57° 60.9° 57.8° - - -
5/23 7:20am 8 4 G 7 60° 92% - - 57° 60.9° 57.8° - - -
5/23 7:10am 347 4 G 6 59° 92% - - 57° 60.9° 57.8° - - -
5/23 7:00am 344 4 G 6 60° 92% - - 57° 60.9° 57.8° - - -
5/23 6:50am 336 3 G 6 60° 92% - - 57° 60.9° 57.8° - - -
5/23 6:40am 313 2 G 3 60° 92% - - 57° 60.9° 57.8° - - -
5/23 6:30am 5 1 G 3 60° 92% - - 57° 60.9° 57.8° - - -
5/23 6:20am 330 2 G 3 60° 92% - - 57° 60.9° 57.8° - - -
5/23 6:10am 351 2 G 4 60° 92% - - 57° 60.9° 57.8° - - -
5/23 6:00am 337 2 G 5 60° 91% - - 57° 60.9° 57.8° - - -